sensor_id;sensor_type;location;lat;lon;timestamp;P1;durP1;ratioP1;P2;durP2;ratioP2
82242;SDS011;71844;51.528;4.442;2023-11-25T00:01:01;1.38;;;0.47;;
82242;SDS011;71844;51.528;4.442;2023-11-25T00:03:29;9.27;;;0.88;;
82242;SDS011;71844;51.528;4.442;2023-11-25T00:05:55;2.10;;;0.30;;
82242;SDS011;71844;51.528;4.442;2023-11-25T00:08:23;1.42;;;0.40;;
82242;SDS011;71844;51.528;4.442;2023-11-25T00:10:55;3.03;;;0.35;;
82242;SDS011;71844;51.528;4.442;2023-11-25T00:13:22;2.35;;;0.40;;
82242;SDS011;71844;51.528;4.442;2023-11-25T00:15:52;2.75;;;0.85;;
82242;SDS011;71844;51.528;4.442;2023-11-25T00:20:46;3.17;;;0.45;;
82242;SDS011;71844;51.528;4.442;2023-11-25T00:23:15;5.28;;;0.65;;
82242;SDS011;71844;51.528;4.442;2023-11-25T00:25:44;3.50;;;0.50;;
82242;SDS011;71844;51.528;4.442;2023-11-25T00:28:11;3.50;;;0.47;;
82242;SDS011;71844;51.528;4.442;2023-11-25T00:30:38;3.17;;;0.52;;
82242;SDS011;71844;51.528;4.442;2023-11-25T00:33:05;5.20;;;1.00;;
82242;SDS011;71844;51.528;4.442;2023-11-25T00:35:32;2.20;;;0.28;;
82242;SDS011;71844;51.528;4.442;2023-11-25T00:37:59;2.90;;;0.73;;
82242;SDS011;71844;51.528;4.442;2023-11-25T00:40:27;3.35;;;0.77;;
82242;SDS011;71844;51.528;4.442;2023-11-25T00:42:55;3.55;;;0.43;;
82242;SDS011;71844;51.528;4.442;2023-11-25T00:45:26;3.17;;;0.70;;
82242;SDS011;71844;51.528;4.442;2023-11-25T00:47:57;4.97;;;0.75;;
82242;SDS011;71844;51.528;4.442;2023-11-25T00:50:27;3.75;;;0.30;;
82242;SDS011;71844;51.528;4.442;2023-11-25T00:52:56;2.75;;;0.40;;
82242;SDS011;71844;51.528;4.442;2023-11-25T00:55:24;5.60;;;0.70;;
82242;SDS011;71844;51.528;4.442;2023-11-25T00:57:55;3.95;;;1.05;;
82242;SDS011;71844;51.528;4.442;2023-11-25T01:00:25;2.72;;;0.40;;
82242;SDS011;71844;51.528;4.442;2023-11-25T01:02:53;4.15;;;0.88;;
82242;SDS011;71844;51.528;4.442;2023-11-25T01:05:23;2.80;;;0.40;;
82242;SDS011;71844;51.528;4.442;2023-11-25T01:07:50;2.70;;;0.40;;
82242;SDS011;71844;51.528;4.442;2023-11-25T01:10:19;1.90;;;0.75;;
82242;SDS011;71844;51.528;4.442;2023-11-25T01:12:46;2.00;;;0.52;;
82242;SDS011;71844;51.528;4.442;2023-11-25T01:15:13;1.67;;;0.40;;
82242;SDS011;71844;51.528;4.442;2023-11-25T01:17:42;3.28;;;0.40;;
82242;SDS011;71844;51.528;4.442;2023-11-25T01:20:10;4.28;;;0.45;;
82242;SDS011;71844;51.528;4.442;2023-11-25T01:22:37;2.25;;;0.40;;
82242;SDS011;71844;51.528;4.442;2023-11-25T01:25:06;1.77;;;0.50;;
82242;SDS011;71844;51.528;4.442;2023-11-25T01:27:34;1.58;;;0.20;;
82242;SDS011;71844;51.528;4.442;2023-11-25T01:30:02;3.55;;;0.30;;
82242;SDS011;71844;51.528;4.442;2023-11-25T01:32:33;2.65;;;0.52;;
82242;SDS011;71844;51.528;4.442;2023-11-25T01:35:00;4.05;;;0.60;;
82242;SDS011;71844;51.528;4.442;2023-11-25T01:37:30;1.80;;;0.35;;
82242;SDS011;71844;51.528;4.442;2023-11-25T01:40:00;1.02;;;0.22;;
82242;SDS011;71844;51.528;4.442;2023-11-25T01:42:32;3.53;;;0.30;;
82242;SDS011;71844;51.528;4.442;2023-11-25T01:45:09;3.22;;;0.20;;
82242;SDS011;71844;51.528;4.442;2023-11-25T01:47:39;1.50;;;0.45;;
82242;SDS011;71844;51.528;4.442;2023-11-25T01:50:09;0.90;;;0.20;;
82242;SDS011;71844;51.528;4.442;2023-11-25T01:52:38;1.80;;;0.32;;
82242;SDS011;71844;51.528;4.442;2023-11-25T01:55:09;5.22;;;0.40;;
82242;SDS011;71844;51.528;4.442;2023-11-25T01:57:37;2.42;;;0.45;;
82242;SDS011;71844;51.528;4.442;2023-11-25T02:00:06;3.47;;;0.52;;
82242;SDS011;71844;51.528;4.442;2023-11-25T02:05:06;2.13;;;0.30;;
82242;SDS011;71844;51.528;4.442;2023-11-25T02:07:34;1.52;;;0.40;;
82242;SDS011;71844;51.528;4.442;2023-11-25T02:10:03;2.33;;;0.38;;
82242;SDS011;71844;51.528;4.442;2023-11-25T02:12:35;1.42;;;0.30;;
82242;SDS011;71844;51.528;4.442;2023-11-25T02:15:10;2.33;;;0.40;;
82242;SDS011;71844;51.528;4.442;2023-11-25T02:17:41;2.85;;;0.55;;
82242;SDS011;71844;51.528;4.442;2023-11-25T02:20:11;4.95;;;0.57;;
82242;SDS011;71844;51.528;4.442;2023-11-25T02:23:01;2.63;;;0.45;;
82242;SDS011;71844;51.528;4.442;2023-11-25T02:25:33;1.15;;;0.22;;
82242;SDS011;71844;51.528;4.442;2023-11-25T02:28:00;2.08;;;0.17;;
82242;SDS011;71844;51.528;4.442;2023-11-25T02:30:27;2.75;;;0.40;;
82242;SDS011;71844;51.528;4.442;2023-11-25T02:33:00;2.58;;;0.20;;
82242;SDS011;71844;51.528;4.442;2023-11-25T02:37:57;1.15;;;0.15;;
82242;SDS011;71844;51.528;4.442;2023-11-25T02:40:25;4.10;;;0.73;;
82242;SDS011;71844;51.528;4.442;2023-11-25T02:42:55;1.38;;;0.47;;
82242;SDS011;71844;51.528;4.442;2023-11-25T02:45:22;1.33;;;0.30;;
82242;SDS011;71844;51.528;4.442;2023-11-25T02:47:49;2.38;;;0.25;;
82242;SDS011;71844;51.528;4.442;2023-11-25T02:50:17;3.85;;;0.60;;
82242;SDS011;71844;51.528;4.442;2023-11-25T02:52:46;2.63;;;0.60;;
82242;SDS011;71844;51.528;4.442;2023-11-25T02:55:13;2.03;;;0.50;;
82242;SDS011;71844;51.528;4.442;2023-11-25T02:57:52;0.85;;;0.20;;
82242;SDS011;71844;51.528;4.442;2023-11-25T03:00:26;1.55;;;0.30;;
82242;SDS011;71844;51.528;4.442;2023-11-25T03:02:57;2.92;;;0.60;;
82242;SDS011;71844;51.528;4.442;2023-11-25T03:05:46;2.40;;;0.40;;
82242;SDS011;71844;51.528;4.442;2023-11-25T03:08:15;1.38;;;0.30;;
82242;SDS011;71844;51.528;4.442;2023-11-25T03:10:48;5.20;;;0.57;;
82242;SDS011;71844;51.528;4.442;2023-11-25T03:13:20;1.95;;;0.30;;
82242;SDS011;71844;51.528;4.442;2023-11-25T03:15:48;3.05;;;0.50;;
82242;SDS011;71844;51.528;4.442;2023-11-25T03:18:20;3.25;;;0.55;;
82242;SDS011;71844;51.528;4.442;2023-11-25T03:20:47;5.72;;;0.73;;
82242;SDS011;71844;51.528;4.442;2023-11-25T03:23:17;1.50;;;0.22;;
82242;SDS011;71844;51.528;4.442;2023-11-25T03:25:45;5.68;;;0.38;;
82242;SDS011;71844;51.528;4.442;2023-11-25T03:28:16;2.00;;;0.60;;
82242;SDS011;71844;51.528;4.442;2023-11-25T03:30:44;1.85;;;0.20;;
82242;SDS011;71844;51.528;4.442;2023-11-25T03:33:12;2.28;;;0.25;;
82242;SDS011;71844;51.528;4.442;2023-11-25T03:35:42;0.90;;;0.13;;
82242;SDS011;71844;51.528;4.442;2023-11-25T03:38:09;1.45;;;0.30;;
82242;SDS011;71844;51.528;4.442;2023-11-25T03:40:36;1.33;;;0.20;;
82242;SDS011;71844;51.528;4.442;2023-11-25T03:43:04;1.33;;;0.20;;
82242;SDS011;71844;51.528;4.442;2023-11-25T03:45:31;3.15;;;0.65;;
82242;SDS011;71844;51.528;4.442;2023-11-25T03:48:02;3.47;;;0.55;;
82242;SDS011;71844;51.528;4.442;2023-11-25T03:50:34;4.55;;;0.47;;
82242;SDS011;71844;51.528;4.442;2023-11-25T03:53:11;1.40;;;0.20;;
82242;SDS011;71844;51.528;4.442;2023-11-25T03:55:39;2.35;;;0.20;;
82242;SDS011;71844;51.528;4.442;2023-11-25T03:58:11;1.15;;;0.28;;
82242;SDS011;71844;51.528;4.442;2023-11-25T04:00:41;1.38;;;0.30;;
82242;SDS011;71844;51.528;4.442;2023-11-25T04:03:10;2.83;;;0.38;;
82242;SDS011;71844;51.528;4.442;2023-11-25T04:05:41;2.90;;;0.30;;
82242;SDS011;71844;51.528;4.442;2023-11-25T04:08:08;3.25;;;0.57;;
82242;SDS011;71844;51.528;4.442;2023-11-25T04:10:34;1.95;;;0.20;;
82242;SDS011;71844;51.528;4.442;2023-11-25T04:13:03;1.90;;;0.65;;
82242;SDS011;71844;51.528;4.442;2023-11-25T04:15:30;0.98;;;0.40;;
82242;SDS011;71844;51.528;4.442;2023-11-25T04:17:57;4.55;;;0.40;;
82242;SDS011;71844;51.528;4.442;2023-11-25T04:20:24;2.17;;;0.30;;
82242;SDS011;71844;51.528;4.442;2023-11-25T04:23:01;4.00;;;0.57;;
82242;SDS011;71844;51.528;4.442;2023-11-25T04:25:34;5.57;;;0.50;;
82242;SDS011;71844;51.528;4.442;2023-11-25T04:28:05;7.25;;;1.00;;
82242;SDS011;71844;51.528;4.442;2023-11-25T04:30:33;1.33;;;0.30;;
82242;SDS011;71844;51.528;4.442;2023-11-25T04:33:07;1.45;;;0.32;;
82242;SDS011;71844;51.528;4.442;2023-11-25T04:35:39;5.03;;;0.40;;
82242;SDS011;71844;51.528;4.442;2023-11-25T04:38:07;2.05;;;0.43;;
82242;SDS011;71844;51.528;4.442;2023-11-25T04:40:34;4.88;;;0.93;;
82242;SDS011;71844;51.528;4.442;2023-11-25T04:43:06;3.60;;;0.47;;
82242;SDS011;71844;51.528;4.442;2023-11-25T04:45:36;3.47;;;0.57;;
82242;SDS011;71844;51.528;4.442;2023-11-25T04:48:03;3.58;;;0.63;;
82242;SDS011;71844;51.528;4.442;2023-11-25T04:50:30;5.55;;;0.63;;
82242;SDS011;71844;51.528;4.442;2023-11-25T04:52:57;3.28;;;0.80;;
82242;SDS011;71844;51.528;4.442;2023-11-25T04:55:26;2.60;;;0.47;;
82242;SDS011;71844;51.528;4.442;2023-11-25T04:57:58;4.47;;;0.60;;
82242;SDS011;71844;51.528;4.442;2023-11-25T05:00:25;5.70;;;0.60;;
82242;SDS011;71844;51.528;4.442;2023-11-25T05:03:02;8.27;;;0.77;;
82242;SDS011;71844;51.528;4.442;2023-11-25T05:05:33;2.72;;;0.50;;
82242;SDS011;71844;51.528;4.442;2023-11-25T05:08:00;1.70;;;0.57;;
82242;SDS011;71844;51.528;4.442;2023-11-25T05:10:27;2.97;;;0.40;;
82242;SDS011;71844;51.528;4.442;2023-11-25T05:12:55;1.70;;;0.30;;
82242;SDS011;71844;51.528;4.442;2023-11-25T05:15:21;1.17;;;0.20;;
82242;SDS011;71844;51.528;4.442;2023-11-25T05:17:49;4.85;;;0.40;;
82242;SDS011;71844;51.528;4.442;2023-11-25T05:20:19;2.78;;;0.40;;
82242;SDS011;71844;51.528;4.442;2023-11-25T05:22:52;2.78;;;0.38;;
82242;SDS011;71844;51.528;4.442;2023-11-25T05:25:18;1.48;;;0.20;;
82242;SDS011;71844;51.528;4.442;2023-11-25T05:27:46;1.95;;;0.30;;
82242;SDS011;71844;51.528;4.442;2023-11-25T05:30:15;3.33;;;0.38;;
82242;SDS011;71844;51.528;4.442;2023-11-25T05:35:27;1.05;;;0.20;;
82242;SDS011;71844;51.528;4.442;2023-11-25T05:37:54;1.60;;;0.13;;
82242;SDS011;71844;51.528;4.442;2023-11-25T05:40:21;1.80;;;0.28;;
82242;SDS011;71844;51.528;4.442;2023-11-25T05:45:23;2.22;;;0.30;;
82242;SDS011;71844;51.528;4.442;2023-11-25T05:47:53;0.75;;;0.20;;
82242;SDS011;71844;51.528;4.442;2023-11-25T05:50:20;0.95;;;0.10;;
82242;SDS011;71844;51.528;4.442;2023-11-25T05:52:48;0.90;;;0.20;;
82242;SDS011;71844;51.528;4.442;2023-11-25T05:55:17;1.00;;;0.57;;
82242;SDS011;71844;51.528;4.442;2023-11-25T05:57:46;0.55;;;0.20;;
82242;SDS011;71844;51.528;4.442;2023-11-25T06:00:13;1.20;;;0.22;;
82242;SDS011;71844;51.528;4.442;2023-11-25T06:02:40;0.70;;;0.57;;
82242;SDS011;71844;51.528;4.442;2023-11-25T06:05:08;0.75;;;0.10;;
82242;SDS011;71844;51.528;4.442;2023-11-25T06:07:38;0.95;;;0.20;;
82242;SDS011;71844;51.528;4.442;2023-11-25T06:10:05;0.65;;;0.10;;
82242;SDS011;71844;51.528;4.442;2023-11-25T06:12:33;2.00;;;0.40;;
82242;SDS011;71844;51.528;4.442;2023-11-25T06:15:00;1.70;;;0.30;;
82242;SDS011;71844;51.528;4.442;2023-11-25T06:17:27;3.53;;;0.43;;
82242;SDS011;71844;51.528;4.442;2023-11-25T06:20:00;2.58;;;0.20;;
82242;SDS011;71844;51.528;4.442;2023-11-25T06:22:27;0.90;;;0.20;;
82242;SDS011;71844;51.528;4.442;2023-11-25T06:24:54;0.70;;;0.20;;
82242;SDS011;71844;51.528;4.442;2023-11-25T06:27:23;1.50;;;0.30;;
82242;SDS011;71844;51.528;4.442;2023-11-25T06:29:51;0.88;;;0.35;;
82242;SDS011;71844;51.528;4.442;2023-11-25T06:32:18;1.55;;;0.43;;
82242;SDS011;71844;51.528;4.442;2023-11-25T06:34:45;0.40;;;0.28;;
82242;SDS011;71844;51.528;4.442;2023-11-25T06:37:12;2.90;;;0.20;;
82242;SDS011;71844;51.528;4.442;2023-11-25T06:39:40;0.95;;;0.30;;
82242;SDS011;71844;51.528;4.442;2023-11-25T06:42:07;0.82;;;0.20;;
82242;SDS011;71844;51.528;4.442;2023-11-25T06:44:36;2.75;;;0.40;;
82242;SDS011;71844;51.528;4.442;2023-11-25T06:47:03;0.85;;;0.20;;
82242;SDS011;71844;51.528;4.442;2023-11-25T06:49:30;0.63;;;0.22;;
82242;SDS011;71844;51.528;4.442;2023-11-25T06:51:57;1.92;;;0.10;;
82242;SDS011;71844;51.528;4.442;2023-11-25T06:54:24;1.73;;;0.32;;
82242;SDS011;71844;51.528;4.442;2023-11-25T06:56:51;0.43;;;0.13;;
82242;SDS011;71844;51.528;4.442;2023-11-25T06:59:18;0.47;;;0.22;;
82242;SDS011;71844;51.528;4.442;2023-11-25T07:01:45;0.90;;;0.13;;
82242;SDS011;71844;51.528;4.442;2023-11-25T07:04:12;1.42;;;0.20;;
82242;SDS011;71844;51.528;4.442;2023-11-25T07:06:40;0.98;;;0.17;;
82242;SDS011;71844;51.528;4.442;2023-11-25T07:09:07;1.17;;;0.25;;
82242;SDS011;71844;51.528;4.442;2023-11-25T07:11:36;0.80;;;0.13;;
82242;SDS011;71844;51.528;4.442;2023-11-25T07:14:03;0.63;;;0.10;;
82242;SDS011;71844;51.528;4.442;2023-11-25T07:16:32;1.77;;;0.25;;
82242;SDS011;71844;51.528;4.442;2023-11-25T07:18:59;1.63;;;0.15;;
82242;SDS011;71844;51.528;4.442;2023-11-25T07:21:27;1.55;;;0.20;;
82242;SDS011;71844;51.528;4.442;2023-11-25T07:23:54;1.52;;;0.20;;
82242;SDS011;71844;51.528;4.442;2023-11-25T07:26:21;0.30;;;0.15;;
82242;SDS011;71844;51.528;4.442;2023-11-25T07:28:49;1.27;;;0.40;;
82242;SDS011;71844;51.528;4.442;2023-11-25T07:31:16;0.60;;;0.20;;
82242;SDS011;71844;51.528;4.442;2023-11-25T07:33:43;0.63;;;0.10;;
82242;SDS011;71844;51.528;4.442;2023-11-25T07:36:10;0.15;;;0.13;;
82242;SDS011;71844;51.528;4.442;2023-11-25T07:38:37;1.10;;;0.30;;
82242;SDS011;71844;51.528;4.442;2023-11-25T07:41:04;2.45;;;0.30;;
82242;SDS011;71844;51.528;4.442;2023-11-25T07:43:32;1.02;;;0.20;;
82242;SDS011;71844;51.528;4.442;2023-11-25T07:45:58;0.43;;;0.17;;
82242;SDS011;71844;51.528;4.442;2023-11-25T07:48:25;1.33;;;0.20;;
82242;SDS011;71844;51.528;4.442;2023-11-25T07:50:52;1.63;;;0.30;;
82242;SDS011;71844;51.528;4.442;2023-11-25T07:53:19;0.85;;;0.20;;
82242;SDS011;71844;51.528;4.442;2023-11-25T07:55:49;1.67;;;0.00;;
82242;SDS011;71844;51.528;4.442;2023-11-25T07:58:17;5.57;;;0.35;;
82242;SDS011;71844;51.528;4.442;2023-11-25T08:00:45;2.08;;;0.40;;
82242;SDS011;71844;51.528;4.442;2023-11-25T08:03:12;2.35;;;0.38;;
82242;SDS011;71844;51.528;4.442;2023-11-25T08:05:39;1.45;;;0.20;;
82242;SDS011;71844;51.528;4.442;2023-11-25T08:08:06;6.15;;;0.60;;
82242;SDS011;71844;51.528;4.442;2023-11-25T08:10:32;3.28;;;0.55;;
82242;SDS011;71844;51.528;4.442;2023-11-25T08:13:01;3.92;;;0.45;;
82242;SDS011;71844;51.528;4.442;2023-11-25T08:15:28;1.88;;;0.40;;
82242;SDS011;71844;51.528;4.442;2023-11-25T08:17:56;2.72;;;0.20;;
82242;SDS011;71844;51.528;4.442;2023-11-25T08:20:25;0.60;;;0.30;;
82242;SDS011;71844;51.528;4.442;2023-11-25T08:22:52;2.38;;;0.28;;
82242;SDS011;71844;51.528;4.442;2023-11-25T08:25:19;3.83;;;1.38;;
82242;SDS011;71844;51.528;4.442;2023-11-25T08:30:32;1.55;;;0.30;;
82242;SDS011;71844;51.528;4.442;2023-11-25T08:32:59;0.28;;;0.10;;
82242;SDS011;71844;51.528;4.442;2023-11-25T08:35:26;2.90;;;0.40;;
82242;SDS011;71844;51.528;4.442;2023-11-25T08:37:53;1.63;;;0.10;;
82242;SDS011;71844;51.528;4.442;2023-11-25T08:40:20;4.35;;;0.40;;
82242;SDS011;71844;51.528;4.442;2023-11-25T08:42:48;0.45;;;0.10;;
82242;SDS011;71844;51.528;4.442;2023-11-25T08:45:18;1.50;;;0.40;;
82242;SDS011;71844;51.528;4.442;2023-11-25T08:47:46;1.15;;;0.50;;
82242;SDS011;71844;51.528;4.442;2023-11-25T08:50:13;0.98;;;0.35;;
82242;SDS011;71844;51.528;4.442;2023-11-25T08:52:43;1.05;;;0.20;;
82242;SDS011;71844;51.528;4.442;2023-11-25T08:55:12;1.27;;;0.30;;
82242;SDS011;71844;51.528;4.442;2023-11-25T08:57:44;0.88;;;0.30;;
82242;SDS011;71844;51.528;4.442;2023-11-25T09:00:11;1.67;;;0.40;;
82242;SDS011;71844;51.528;4.442;2023-11-25T09:02:45;1.95;;;0.32;;
82242;SDS011;71844;51.528;4.442;2023-11-25T09:05:19;1.85;;;0.28;;
82242;SDS011;71844;51.528;4.442;2023-11-25T09:07:54;2.20;;;0.60;;
82242;SDS011;71844;51.528;4.442;2023-11-25T09:10:22;1.73;;;0.22;;
82242;SDS011;71844;51.528;4.442;2023-11-25T09:12:52;2.65;;;0.40;;
82242;SDS011;71844;51.528;4.442;2023-11-25T09:15:19;6.18;;;0.90;;
82242;SDS011;71844;51.528;4.442;2023-11-25T09:17:46;3.92;;;0.30;;
82242;SDS011;71844;51.528;4.442;2023-11-25T09:20:15;2.33;;;0.25;;
82242;SDS011;71844;51.528;4.442;2023-11-25T09:22:43;2.38;;;0.32;;
82242;SDS011;71844;51.528;4.442;2023-11-25T09:25:10;7.15;;;1.38;;
82242;SDS011;71844;51.528;4.442;2023-11-25T09:27:38;3.05;;;0.20;;
82242;SDS011;71844;51.528;4.442;2023-11-25T09:30:06;7.47;;;0.80;;
82242;SDS011;71844;51.528;4.442;2023-11-25T09:32:38;11.80;;;0.70;;
82242;SDS011;71844;51.528;4.442;2023-11-25T09:35:06;1.40;;;0.50;;
82242;SDS011;71844;51.528;4.442;2023-11-25T09:37:34;1.58;;;0.28;;
82242;SDS011;71844;51.528;4.442;2023-11-25T09:40:01;2.20;;;0.22;;
82242;SDS011;71844;51.528;4.442;2023-11-25T09:42:30;2.65;;;0.68;;
82242;SDS011;71844;51.528;4.442;2023-11-25T09:45:01;1.52;;;0.30;;
82242;SDS011;71844;51.528;4.442;2023-11-25T09:47:29;2.20;;;0.38;;
82242;SDS011;71844;51.528;4.442;2023-11-25T09:49:56;3.38;;;0.30;;
82242;SDS011;71844;51.528;4.442;2023-11-25T09:52:23;1.95;;;0.35;;
82242;SDS011;71844;51.528;4.442;2023-11-25T09:54:56;4.50;;;0.50;;
82242;SDS011;71844;51.528;4.442;2023-11-25T09:57:25;1.75;;;0.35;;
82242;SDS011;71844;51.528;4.442;2023-11-25T09:59:59;2.55;;;0.43;;
82242;SDS011;71844;51.528;4.442;2023-11-25T10:02:27;1.55;;;0.50;;
82242;SDS011;71844;51.528;4.442;2023-11-25T10:04:58;1.88;;;0.25;;
82242;SDS011;71844;51.528;4.442;2023-11-25T10:07:27;3.30;;;0.90;;
82242;SDS011;71844;51.528;4.442;2023-11-25T10:09:54;2.67;;;0.73;;
82242;SDS011;71844;51.528;4.442;2023-11-25T10:12:21;4.38;;;0.40;;
82242;SDS011;71844;51.528;4.442;2023-11-25T10:14:47;0.90;;;0.32;;
82242;SDS011;71844;51.528;4.442;2023-11-25T10:17:19;3.58;;;0.30;;
82242;SDS011;71844;51.528;4.442;2023-11-25T10:19:48;3.55;;;0.45;;
82242;SDS011;71844;51.528;4.442;2023-11-25T10:22:15;2.85;;;0.40;;
82242;SDS011;71844;51.528;4.442;2023-11-25T10:24:49;3.38;;;0.45;;
82242;SDS011;71844;51.528;4.442;2023-11-25T10:27:22;2.85;;;0.30;;
82242;SDS011;71844;51.528;4.442;2023-11-25T10:29:49;5.55;;;0.50;;
82242;SDS011;71844;51.528;4.442;2023-11-25T10:32:16;3.00;;;0.40;;
82242;SDS011;71844;51.528;4.442;2023-11-25T10:34:42;4.30;;;0.65;;
82242;SDS011;71844;51.528;4.442;2023-11-25T10:37:09;2.03;;;0.22;;
82242;SDS011;71844;51.528;4.442;2023-11-25T10:39:36;3.10;;;0.45;;
82242;SDS011;71844;51.528;4.442;2023-11-25T10:42:03;4.30;;;0.30;;
82242;SDS011;71844;51.528;4.442;2023-11-25T10:44:34;5.82;;;0.40;;
82242;SDS011;71844;51.528;4.442;2023-11-25T10:47:01;4.72;;;0.65;;
82242;SDS011;71844;51.528;4.442;2023-11-25T10:49:31;1.60;;;0.50;;
82242;SDS011;71844;51.528;4.442;2023-11-25T10:52:03;2.85;;;0.30;;
82242;SDS011;71844;51.528;4.442;2023-11-25T10:54:33;3.53;;;0.50;;
82242;SDS011;71844;51.528;4.442;2023-11-25T10:57:02;3.85;;;0.63;;
82242;SDS011;71844;51.528;4.442;2023-11-25T10:59:35;3.13;;;0.70;;
82242;SDS011;71844;51.528;4.442;2023-11-25T11:02:08;2.33;;;0.57;;
82242;SDS011;71844;51.528;4.442;2023-11-25T11:04:48;4.47;;;0.73;;
82242;SDS011;71844;51.528;4.442;2023-11-25T11:07:23;2.72;;;0.85;;
82242;SDS011;71844;51.528;4.442;2023-11-25T11:09:54;4.35;;;1.00;;
82242;SDS011;71844;51.528;4.442;2023-11-25T11:12:33;4.80;;;1.05;;
82242;SDS011;71844;51.528;4.442;2023-11-25T11:15:05;3.58;;;1.02;;
82242;SDS011;71844;51.528;4.442;2023-11-25T11:17:45;6.70;;;1.13;;
82242;SDS011;71844;51.528;4.442;2023-11-25T11:20:26;5.70;;;0.75;;
82242;SDS011;71844;51.528;4.442;2023-11-25T11:22:55;4.20;;;0.85;;
82242;SDS011;71844;51.528;4.442;2023-11-25T11:33:32;3.97;;;0.88;;
82242;SDS011;71844;51.528;4.442;2023-11-25T11:36:05;3.40;;;0.80;;
82242;SDS011;71844;51.528;4.442;2023-11-25T11:38:32;4.88;;;0.55;;
82242;SDS011;71844;51.528;4.442;2023-11-25T11:43:41;5.28;;;1.10;;
82242;SDS011;71844;51.528;4.442;2023-11-25T11:46:32;5.95;;;0.90;;
82242;SDS011;71844;51.528;4.442;2023-11-25T11:49:19;4.70;;;0.93;;
82242;SDS011;71844;51.528;4.442;2023-11-25T11:51:59;3.83;;;0.93;;
82242;SDS011;71844;51.528;4.442;2023-11-25T11:54:27;5.03;;;1.27;;
82242;SDS011;71844;51.528;4.442;2023-11-25T11:56:57;5.35;;;0.93;;
82242;SDS011;71844;51.528;4.442;2023-11-25T11:59:55;5.35;;;1.02;;
82242;SDS011;71844;51.528;4.442;2023-11-25T12:02:28;3.13;;;1.08;;
82242;SDS011;71844;51.528;4.442;2023-11-25T12:07:43;3.30;;;0.82;;
82242;SDS011;71844;51.528;4.442;2023-11-25T12:10:10;3.30;;;1.00;;
82242;SDS011;71844;51.528;4.442;2023-11-25T12:12:40;4.10;;;0.82;;
82242;SDS011;71844;51.528;4.442;2023-11-25T12:15:12;6.68;;;1.25;;
82242;SDS011;71844;51.528;4.442;2023-11-25T12:17:47;5.13;;;1.00;;
82242;SDS011;71844;51.528;4.442;2023-11-25T12:20:15;5.18;;;1.00;;
82242;SDS011;71844;51.528;4.442;2023-11-25T12:22:42;4.38;;;1.17;;
82242;SDS011;71844;51.528;4.442;2023-11-25T12:25:09;3.60;;;1.02;;
82242;SDS011;71844;51.528;4.442;2023-11-25T12:28:04;6.80;;;1.35;;
82242;SDS011;71844;51.528;4.442;2023-11-25T12:30:39;7.55;;;1.30;;
82242;SDS011;71844;51.528;4.442;2023-11-25T12:33:07;4.95;;;0.80;;
82242;SDS011;71844;51.528;4.442;2023-11-25T12:35:37;6.72;;;1.27;;
82242;SDS011;71844;51.528;4.442;2023-11-25T12:38:06;7.88;;;1.40;;
82242;SDS011;71844;51.528;4.442;2023-11-25T12:40:41;5.15;;;1.30;;
82242;SDS011;71844;51.528;4.442;2023-11-25T12:43:12;5.05;;;1.75;;
82242;SDS011;71844;51.528;4.442;2023-11-25T12:45:43;5.85;;;1.55;;
82242;SDS011;71844;51.528;4.442;2023-11-25T12:48:13;6.72;;;1.40;;
82242;SDS011;71844;51.528;4.442;2023-11-25T12:51:01;3.30;;;1.30;;
82242;SDS011;71844;51.528;4.442;2023-11-25T12:53:34;8.48;;;0.95;;
82242;SDS011;71844;51.528;4.442;2023-11-25T12:56:02;5.20;;;1.00;;
82242;SDS011;71844;51.528;4.442;2023-11-25T12:58:29;4.47;;;0.68;;
82242;SDS011;71844;51.528;4.442;2023-11-25T13:00:57;3.50;;;0.90;;
82242;SDS011;71844;51.528;4.442;2023-11-25T13:03:28;5.82;;;1.20;;
82242;SDS011;71844;51.528;4.442;2023-11-25T13:05:59;6.53;;;1.40;;
82242;SDS011;71844;51.528;4.442;2023-11-25T13:08:31;4.38;;;0.95;;
82242;SDS011;71844;51.528;4.442;2023-11-25T13:11:07;6.85;;;1.05;;
82242;SDS011;71844;51.528;4.442;2023-11-25T13:13:38;5.75;;;1.55;;
82242;SDS011;71844;51.528;4.442;2023-11-25T13:16:05;4.97;;;1.35;;
82242;SDS011;71844;51.528;4.442;2023-11-25T13:18:35;4.20;;;1.10;;
82242;SDS011;71844;51.528;4.442;2023-11-25T13:21:02;5.97;;;1.40;;
82242;SDS011;71844;51.528;4.442;2023-11-25T13:23:34;5.72;;;1.63;;
82242;SDS011;71844;51.528;4.442;2023-11-25T13:26:01;5.85;;;1.60;;
82242;SDS011;71844;51.528;4.442;2023-11-25T13:28:28;4.45;;;0.73;;
82242;SDS011;71844;51.528;4.442;2023-11-25T13:30:56;5.90;;;1.48;;
82242;SDS011;71844;51.528;4.442;2023-11-25T13:33:30;7.97;;;1.40;;
82242;SDS011;71844;51.528;4.442;2023-11-25T13:36:03;4.75;;;1.40;;
82242;SDS011;71844;51.528;4.442;2023-11-25T13:38:30;4.30;;;1.55;;
82242;SDS011;71844;51.528;4.442;2023-11-25T13:40:56;7.10;;;1.20;;
82242;SDS011;71844;51.528;4.442;2023-11-25T13:43:23;4.75;;;1.10;;
82242;SDS011;71844;51.528;4.442;2023-11-25T13:45:50;4.65;;;0.90;;
82242;SDS011;71844;51.528;4.442;2023-11-25T13:48:17;6.40;;;0.88;;
82242;SDS011;71844;51.528;4.442;2023-11-25T13:50:44;5.68;;;1.13;;
82242;SDS011;71844;51.528;4.442;2023-11-25T13:53:11;6.65;;;1.55;;
82242;SDS011;71844;51.528;4.442;2023-11-25T13:55:39;4.45;;;1.15;;
82242;SDS011;71844;51.528;4.442;2023-11-25T13:58:12;5.03;;;0.80;;
82242;SDS011;71844;51.528;4.442;2023-11-25T14:00:39;6.32;;;0.80;;
82242;SDS011;71844;51.528;4.442;2023-11-25T14:03:07;8.20;;;1.42;;
82242;SDS011;71844;51.528;4.442;2023-11-25T14:08:04;7.78;;;1.05;;
82242;SDS011;71844;51.528;4.442;2023-11-25T14:10:34;5.10;;;1.02;;
82242;SDS011;71844;51.528;4.442;2023-11-25T14:13:04;6.03;;;1.45;;
82242;SDS011;71844;51.528;4.442;2023-11-25T14:15:32;5.85;;;1.30;;
82242;SDS011;71844;51.528;4.442;2023-11-25T14:17:59;6.95;;;1.52;;
82242;SDS011;71844;51.528;4.442;2023-11-25T14:20:27;13.88;;;2.30;;
82242;SDS011;71844;51.528;4.442;2023-11-25T14:22:54;5.78;;;0.40;;
82242;SDS011;71844;51.528;4.442;2023-11-25T14:25:22;6.97;;;1.20;;
82242;SDS011;71844;51.528;4.442;2023-11-25T14:27:50;4.78;;;0.80;;
82242;SDS011;71844;51.528;4.442;2023-11-25T14:30:17;5.05;;;0.70;;
82242;SDS011;71844;51.528;4.442;2023-11-25T14:32:44;5.82;;;0.63;;
82242;SDS011;71844;51.528;4.442;2023-11-25T14:35:15;7.75;;;0.82;;
82242;SDS011;71844;51.528;4.442;2023-11-25T14:37:43;3.28;;;0.70;;
82242;SDS011;71844;51.528;4.442;2023-11-25T14:40:11;5.82;;;0.80;;
82242;SDS011;71844;51.528;4.442;2023-11-25T14:45:16;2.72;;;0.40;;
82242;SDS011;71844;51.528;4.442;2023-11-25T14:47:42;7.53;;;1.38;;
82242;SDS011;71844;51.528;4.442;2023-11-25T14:50:11;6.25;;;1.33;;
82242;SDS011;71844;51.528;4.442;2023-11-25T14:52:38;4.57;;;1.08;;
82242;SDS011;71844;51.528;4.442;2023-11-25T14:55:05;6.07;;;0.85;;
82242;SDS011;71844;51.528;4.442;2023-11-25T14:57:34;4.15;;;0.73;;
82242;SDS011;71844;51.528;4.442;2023-11-25T15:00:05;4.22;;;0.40;;
82242;SDS011;71844;51.528;4.442;2023-11-25T15:02:35;2.97;;;0.70;;
82242;SDS011;71844;51.528;4.442;2023-11-25T15:05:02;4.28;;;0.88;;
82242;SDS011;71844;51.528;4.442;2023-11-25T15:07:30;3.10;;;0.93;;
82242;SDS011;71844;51.528;4.442;2023-11-25T15:09:57;2.20;;;0.60;;
82242;SDS011;71844;51.528;4.442;2023-11-25T15:12:24;3.00;;;0.60;;
82242;SDS011;71844;51.528;4.442;2023-11-25T15:14:54;5.25;;;0.50;;
82242;SDS011;71844;51.528;4.442;2023-11-25T15:17:22;4.80;;;0.90;;
82242;SDS011;71844;51.528;4.442;2023-11-25T15:19:49;1.77;;;0.35;;
82242;SDS011;71844;51.528;4.442;2023-11-25T15:22:16;3.65;;;0.80;;
82242;SDS011;71844;51.528;4.442;2023-11-25T15:24:43;7.63;;;0.88;;
82242;SDS011;71844;51.528;4.442;2023-11-25T15:27:10;4.95;;;0.90;;
82242;SDS011;71844;51.528;4.442;2023-11-25T15:29:39;3.05;;;0.52;;
82242;SDS011;71844;51.528;4.442;2023-11-25T15:32:06;2.67;;;0.40;;
82242;SDS011;71844;51.528;4.442;2023-11-25T15:34:33;2.22;;;0.50;;